sensor_id;sensor_type;location;lat;lon;timestamp;P1;P2;P0
69123;PMS5003;56232;53.384;-2.732;2022-10-18T00:00:33;1;1;
69123;PMS5003;56232;53.384;-2.732;2022-10-18T00:02:58;3;1;
69123;PMS5003;56232;53.384;-2.732;2022-10-18T00:05:24;4;4;
69123;PMS5003;56232;53.384;-2.732;2022-10-18T00:07:49;7;5;
69123;PMS5003;56232;53.384;-2.732;2022-10-18T00:10:15;2;2;
69123;PMS5003;56232;53.384;-2.732;2022-10-18T00:12:40;3;3;
69123;PMS5003;56232;53.384;-2.732;2022-10-18T00:15:07;1;1;
69123;PMS5003;56232;53.384;-2.732;2022-10-18T00:17:32;4;3;
69123;PMS5003;56232;53.384;-2.732;2022-10-18T00:19:57;3;2;
69123;PMS5003;56232;53.384;-2.732;2022-10-18T00:22:23;3;2;
69123;PMS5003;56232;53.384;-2.732;2022-10-18T00:24:49;2;2;
69123;PMS5003;56232;53.384;-2.732;2022-10-18T00:27:15;2;2;
69123;PMS5003;56232;53.384;-2.732;2022-10-18T00:29:40;2;2;
69123;PMS5003;56232;53.384;-2.732;2022-10-18T00:32:06;3;2;
69123;PMS5003;56232;53.384;-2.732;2022-10-18T00:34:32;4;3;
69123;PMS5003;56232;53.384;-2.732;2022-10-18T00:36:57;3;3;
69123;PMS5003;56232;53.384;-2.732;2022-10-18T00:39:23;2;2;
69123;PMS5003;56232;53.384;-2.732;2022-10-18T00:41:49;2;2;
69123;PMS5003;56232;53.384;-2.732;2022-10-18T00:46:41;2;2;
69123;PMS5003;56232;53.384;-2.732;2022-10-18T00:49:06;4;3;
69123;PMS5003;56232;53.384;-2.732;2022-10-18T00:51:33;2;2;
69123;PMS5003;56232;53.384;-2.732;2022-10-18T00:53:57;5;3;
69123;PMS5003;56232;53.384;-2.732;2022-10-18T00:56:23;4;3;
69123;PMS5003;56232;53.384;-2.732;2022-10-18T00:58:49;8;7;
69123;PMS5003;56232;53.384;-2.732;2022-10-18T01:01:15;6;5;
69123;PMS5003;56232;53.384;-2.732;2022-10-18T01:03:40;8;8;
69123;PMS5003;56232;53.384;-2.732;2022-10-18T01:06:06;8;8;
69123;PMS5003;56232;53.384;-2.732;2022-10-18T01:08:34;8;7;
69123;PMS5003;56232;53.384;-2.732;2022-10-18T01:11:00;5;4;
69123;PMS5003;56232;53.384;-2.732;2022-10-18T01:13:27;6;6;
69123;PMS5003;56232;53.384;-2.732;2022-10-18T01:15:49;4;4;
69123;PMS5003;56232;53.384;-2.732;2022-10-18T01:18:15;5;5;
69123;PMS5003;56232;53.384;-2.732;2022-10-18T01:23:06;7;7;
69123;PMS5003;56232;53.384;-2.732;2022-10-18T01:25:35;5;5;
69123;PMS5003;56232;53.384;-2.732;2022-10-18T01:27:58;8;7;
69123;PMS5003;56232;53.384;-2.732;2022-10-18T01:32:49;6;5;
69123;PMS5003;56232;53.384;-2.732;2022-10-18T01:35:14;9;9;
69123;PMS5003;56232;53.384;-2.732;2022-10-18T01:37:39;8;7;
69123;PMS5003;56232;53.384;-2.732;2022-10-18T01:40:05;8;6;
69123;PMS5003;56232;53.384;-2.732;2022-10-18T01:42:30;4;4;
69123;PMS5003;56232;53.384;-2.732;2022-10-18T01:44:56;10;6;
69123;PMS5003;56232;53.384;-2.732;2022-10-18T01:47:21;8;6;
69123;PMS5003;56232;53.384;-2.732;2022-10-18T01:49:47;6;5;
69123;PMS5003;56232;53.384;-2.732;2022-10-18T01:52:13;6;6;
69123;PMS5003;56232;53.384;-2.732;2022-10-18T01:54:40;5;5;
69123;PMS5003;56232;53.384;-2.732;2022-10-18T01:57:05;7;5;
69123;PMS5003;56232;53.384;-2.732;2022-10-18T01:59:33;6;6;
69123;PMS5003;56232;53.384;-2.732;2022-10-18T02:01:58;9;8;
69123;PMS5003;56232;53.384;-2.732;2022-10-18T02:04:22;8;7;
69123;PMS5003;56232;53.384;-2.732;2022-10-18T02:06:47;5;5;
69123;PMS5003;56232;53.384;-2.732;2022-10-18T02:09:15;8;7;
69123;PMS5003;56232;53.384;-2.732;2022-10-18T02:11:38;5;4;
69123;PMS5003;56232;53.384;-2.732;2022-10-18T02:14:06;7;6;
69123;PMS5003;56232;53.384;-2.732;2022-10-18T02:16:30;8;8;
69123;PMS5003;56232;53.384;-2.732;2022-10-18T02:18:56;5;5;
69123;PMS5003;56232;53.384;-2.732;2022-10-18T02:21:20;6;6;
69123;PMS5003;56232;53.384;-2.732;2022-10-18T02:23:45;8;8;
69123;PMS5003;56232;53.384;-2.732;2022-10-18T02:26:11;8;8;
69123;PMS5003;56232;53.384;-2.732;2022-10-18T02:28:37;14;14;
69123;PMS5003;56232;53.384;-2.732;2022-10-18T02:31:04;13;10;
69123;PMS5003;56232;53.384;-2.732;2022-10-18T02:33:30;14;13;
69123;PMS5003;56232;53.384;-2.732;2022-10-18T02:35:55;13;13;
69123;PMS5003;56232;53.384;-2.732;2022-10-18T02:38:19;19;17;
69123;PMS5003;56232;53.384;-2.732;2022-10-18T02:40:45;16;16;
69123;PMS5003;56232;53.384;-2.732;2022-10-18T02:43:11;17;16;
69123;PMS5003;56232;53.384;-2.732;2022-10-18T02:45:36;20;19;
69123;PMS5003;56232;53.384;-2.732;2022-10-18T02:48:02;16;16;
69123;PMS5003;56232;53.384;-2.732;2022-10-18T02:50:27;17;16;
69123;PMS5003;56232;53.384;-2.732;2022-10-18T02:52:53;13;13;
69123;PMS5003;56232;53.384;-2.732;2022-10-18T02:55:19;13;12;
69123;PMS5003;56232;53.384;-2.732;2022-10-18T02:57:44;11;10;
69123;PMS5003;56232;53.384;-2.732;2022-10-18T03:00:10;11;9;
69123;PMS5003;56232;53.384;-2.732;2022-10-18T03:02:36;10;8;
69123;PMS5003;56232;53.384;-2.732;2022-10-18T03:05:02;6;6;
69123;PMS5003;56232;53.384;-2.732;2022-10-18T03:07:27;7;6;
69123;PMS5003;56232;53.384;-2.732;2022-10-18T03:09:53;6;5;
69123;PMS5003;56232;53.384;-2.732;2022-10-18T03:12:19;6;5;
69123;PMS5003;56232;53.384;-2.732;2022-10-18T03:14:44;3;3;
69123;PMS5003;56232;53.384;-2.732;2022-10-18T03:17:10;5;5;
69123;PMS5003;56232;53.384;-2.732;2022-10-18T03:19:36;7;5;
69123;PMS5003;56232;53.384;-2.732;2022-10-18T03:22:01;6;5;
69123;PMS5003;56232;53.384;-2.732;2022-10-18T03:24:27;6;6;
69123;PMS5003;56232;53.384;-2.732;2022-10-18T03:26:53;4;4;
69123;PMS5003;56232;53.384;-2.732;2022-10-18T03:29:19;5;4;
69123;PMS5003;56232;53.384;-2.732;2022-10-18T03:31:44;6;5;
69123;PMS5003;56232;53.384;-2.732;2022-10-18T03:34:10;9;8;
69123;PMS5003;56232;53.384;-2.732;2022-10-18T03:36:35;9;9;
69123;PMS5003;56232;53.384;-2.732;2022-10-18T03:39:00;2;2;
69123;PMS5003;56232;53.384;-2.732;2022-10-18T03:41:26;3;3;
69123;PMS5003;56232;53.384;-2.732;2022-10-18T03:43:52;5;4;
69123;PMS5003;56232;53.384;-2.732;2022-10-18T03:46:17;4;4;
69123;PMS5003;56232;53.384;-2.732;2022-10-18T03:48:43;4;4;
69123;PMS5003;56232;53.384;-2.732;2022-10-18T03:51:09;3;3;
69123;PMS5003;56232;53.384;-2.732;2022-10-18T03:53:35;3;3;
69123;PMS5003;56232;53.384;-2.732;2022-10-18T03:56:00;4;4;
69123;PMS5003;56232;53.384;-2.732;2022-10-18T03:58:26;3;3;
69123;PMS5003;56232;53.384;-2.732;2022-10-18T04:00:52;3;2;
69123;PMS5003;56232;53.384;-2.732;2022-10-18T04:03:18;4;3;
69123;PMS5003;56232;53.384;-2.732;2022-10-18T04:05:43;3;3;
69123;PMS5003;56232;53.384;-2.732;2022-10-18T04:08:09;6;4;
69123;PMS5003;56232;53.384;-2.732;2022-10-18T04:10:36;4;3;
69123;PMS5003;56232;53.384;-2.732;2022-10-18T04:13:01;3;3;
69123;PMS5003;56232;53.384;-2.732;2022-10-18T04:15:26;2;2;
69123;PMS5003;56232;53.384;-2.732;2022-10-18T04:17:52;4;3;
69123;PMS5003;56232;53.384;-2.732;2022-10-18T04:20:18;3;3;
69123;PMS5003;56232;53.384;-2.732;2022-10-18T04:22:44;4;3;
69123;PMS5003;56232;53.384;-2.732;2022-10-18T04:25:09;3;3;
69123;PMS5003;56232;53.384;-2.732;2022-10-18T04:27:36;4;3;
69123;PMS5003;56232;53.384;-2.732;2022-10-18T04:30:01;3;3;
69123;PMS5003;56232;53.384;-2.732;2022-10-18T04:32:27;3;3;
69123;PMS5003;56232;53.384;-2.732;2022-10-18T04:34:52;2;1;
69123;PMS5003;56232;53.384;-2.732;2022-10-18T04:37:18;4;4;
69123;PMS5003;56232;53.384;-2.732;2022-10-18T04:39:44;5;4;
69123;PMS5003;56232;53.384;-2.732;2022-10-18T04:42:10;2;2;
69123;PMS5003;56232;53.384;-2.732;2022-10-18T04:44:36;2;2;
69123;PMS5003;56232;53.384;-2.732;2022-10-18T04:47:01;6;4;
69123;PMS5003;56232;53.384;-2.732;2022-10-18T04:49:27;5;4;
69123;PMS5003;56232;53.384;-2.732;2022-10-18T04:51:52;5;5;
69123;PMS5003;56232;53.384;-2.732;2022-10-18T04:54:18;3;3;
69123;PMS5003;56232;53.384;-2.732;2022-10-18T04:56:44;4;4;
69123;PMS5003;56232;53.384;-2.732;2022-10-18T04:59:09;8;6;
69123;PMS5003;56232;53.384;-2.732;2022-10-18T05:01:35;5;4;
69123;PMS5003;56232;53.384;-2.732;2022-10-18T05:04:00;3;3;
69123;PMS5003;56232;53.384;-2.732;2022-10-18T05:06:26;4;4;
69123;PMS5003;56232;53.384;-2.732;2022-10-18T05:08:52;4;4;
69123;PMS5003;56232;53.384;-2.732;2022-10-18T05:11:18;4;4;
69123;PMS5003;56232;53.384;-2.732;2022-10-18T05:13:43;4;2;
69123;PMS5003;56232;53.384;-2.732;2022-10-18T05:16:09;7;6;
69123;PMS5003;56232;53.384;-2.732;2022-10-18T05:18:35;5;5;
69123;PMS5003;56232;53.384;-2.732;2022-10-18T05:21:01;5;4;
69123;PMS5003;56232;53.384;-2.732;2022-10-18T05:23:26;3;3;
69123;PMS5003;56232;53.384;-2.732;2022-10-18T05:25:52;5;4;
69123;PMS5003;56232;53.384;-2.732;2022-10-18T05:28:18;4;4;
69123;PMS5003;56232;53.384;-2.732;2022-10-18T05:30:43;4;4;
69123;PMS5003;56232;53.384;-2.732;2022-10-18T05:33:09;5;4;
69123;PMS5003;56232;53.384;-2.732;2022-10-18T05:35:35;3;3;
69123;PMS5003;56232;53.384;-2.732;2022-10-18T05:38:02;4;3;
69123;PMS5003;56232;53.384;-2.732;2022-10-18T05:40:26;4;3;
69123;PMS5003;56232;53.384;-2.732;2022-10-18T05:42:51;10;9;
69123;PMS5003;56232;53.384;-2.732;2022-10-18T05:45:17;9;6;
69123;PMS5003;56232;53.384;-2.732;2022-10-18T05:47:42;6;5;
69123;PMS5003;56232;53.384;-2.732;2022-10-18T05:50:08;5;5;
69123;PMS5003;56232;53.384;-2.732;2022-10-18T05:52:34;5;5;
69123;PMS5003;56232;53.384;-2.732;2022-10-18T05:55:00;6;6;
69123;PMS5003;56232;53.384;-2.732;2022-10-18T05:57:25;4;4;
69123;PMS5003;56232;53.384;-2.732;2022-10-18T05:59:51;5;5;
69123;PMS5003;56232;53.384;-2.732;2022-10-18T06:02:16;6;6;
69123;PMS5003;56232;53.384;-2.732;2022-10-18T06:04:42;7;6;
69123;PMS5003;56232;53.384;-2.732;2022-10-18T06:07:08;8;8;
69123;PMS5003;56232;53.384;-2.732;2022-10-18T06:09:34;11;9;
69123;PMS5003;56232;53.384;-2.732;2022-10-18T06:11:59;14;13;
69123;PMS5003;56232;53.384;-2.732;2022-10-18T06:14:25;19;16;
69123;PMS5003;56232;53.384;-2.732;2022-10-18T06:16:50;19;16;
69123;PMS5003;56232;53.384;-2.732;2022-10-18T06:19:16;20;20;
69123;PMS5003;56232;53.384;-2.732;2022-10-18T06:21:42;14;13;
69123;PMS5003;56232;53.384;-2.732;2022-10-18T06:24:08;15;14;
69123;PMS5003;56232;53.384;-2.732;2022-10-18T06:26:33;14;13;
69123;PMS5003;56232;53.384;-2.732;2022-10-18T06:28:59;11;10;
69123;PMS5003;56232;53.384;-2.732;2022-10-18T06:31:24;8;8;
69123;PMS5003;56232;53.384;-2.732;2022-10-18T06:33:50;12;12;
69123;PMS5003;56232;53.384;-2.732;2022-10-18T06:36:16;11;11;
69123;PMS5003;56232;53.384;-2.732;2022-10-18T06:38:41;11;11;
69123;PMS5003;56232;53.384;-2.732;2022-10-18T06:41:07;11;11;
69123;PMS5003;56232;53.384;-2.732;2022-10-18T06:43:33;10;9;
69123;PMS5003;56232;53.384;-2.732;2022-10-18T06:45:59;12;10;
69123;PMS5003;56232;53.384;-2.732;2022-10-18T06:48:24;9;8;
69123;PMS5003;56232;53.384;-2.732;2022-10-18T06:50:51;9;8;
69123;PMS5003;56232;53.384;-2.732;2022-10-18T06:53:15;9;8;
69123;PMS5003;56232;53.384;-2.732;2022-10-18T06:55:41;12;11;
69123;PMS5003;56232;53.384;-2.732;2022-10-18T06:58:07;7;7;
69123;PMS5003;56232;53.384;-2.732;2022-10-18T07:00:32;6;6;
69123;PMS5003;56232;53.384;-2.732;2022-10-18T07:02:58;6;6;
69123;PMS5003;56232;53.384;-2.732;2022-10-18T07:05:24;7;6;
69123;PMS5003;56232;53.384;-2.732;2022-10-18T07:07:49;6;5;
69123;PMS5003;56232;53.384;-2.732;2022-10-18T07:10:15;8;8;
69123;PMS5003;56232;53.384;-2.732;2022-10-18T07:12:41;8;8;
69123;PMS5003;56232;53.384;-2.732;2022-10-18T07:15:07;11;10;
69123;PMS5003;56232;53.384;-2.732;2022-10-18T07:17:32;9;9;
69123;PMS5003;56232;53.384;-2.732;2022-10-18T07:19:58;11;9;
69123;PMS5003;56232;53.384;-2.732;2022-10-18T07:22:24;10;8;
69123;PMS5003;56232;53.384;-2.732;2022-10-18T07:24:49;9;9;
69123;PMS5003;56232;53.384;-2.732;2022-10-18T07:27:15;6;5;
69123;PMS5003;56232;53.384;-2.732;2022-10-18T07:29:41;10;9;
69123;PMS5003;56232;53.384;-2.732;2022-10-18T07:32:06;7;7;
69123;PMS5003;56232;53.384;-2.732;2022-10-18T07:34:32;8;7;
69123;PMS5003;56232;53.384;-2.732;2022-10-18T07:37:00;11;9;
69123;PMS5003;56232;53.384;-2.732;2022-10-18T07:39:23;11;11;
69123;PMS5003;56232;53.384;-2.732;2022-10-18T07:41:49;10;9;
69123;PMS5003;56232;53.384;-2.732;2022-10-18T07:44:14;14;12;
69123;PMS5003;56232;53.384;-2.732;2022-10-18T07:46:40;10;10;
69123;PMS5003;56232;53.384;-2.732;2022-10-18T07:49:05;9;8;
69123;PMS5003;56232;53.384;-2.732;2022-10-18T07:51:31;11;11;
69123;PMS5003;56232;53.384;-2.732;2022-10-18T07:53:57;11;11;
69123;PMS5003;56232;53.384;-2.732;2022-10-18T07:56:22;13;10;
69123;PMS5003;56232;53.384;-2.732;2022-10-18T07:58:49;12;11;
69123;PMS5003;56232;53.384;-2.732;2022-10-18T08:01:14;14;13;
69123;PMS5003;56232;53.384;-2.732;2022-10-18T08:03:40;13;13;
69123;PMS5003;56232;53.384;-2.732;2022-10-18T08:06:06;16;15;
69123;PMS5003;56232;53.384;-2.732;2022-10-18T08:08:30;17;16;
69123;PMS5003;56232;53.384;-2.732;2022-10-18T08:11:00;17;16;
69123;PMS5003;56232;53.384;-2.732;2022-10-18T08:13:22;22;19;
69123;PMS5003;56232;53.384;-2.732;2022-10-18T08:15:47;15;15;
69123;PMS5003;56232;53.384;-2.732;2022-10-18T08:18:13;19;19;
69123;PMS5003;56232;53.384;-2.732;2022-10-18T08:20:41;22;22;
69123;PMS5003;56232;53.384;-2.732;2022-10-18T08:23:04;20;19;
69123;PMS5003;56232;53.384;-2.732;2022-10-18T08:25:29;25;24;
69123;PMS5003;56232;53.384;-2.732;2022-10-18T08:27:55;21;21;
69123;PMS5003;56232;53.384;-2.732;2022-10-18T08:30:20;25;24;
69123;PMS5003;56232;53.384;-2.732;2022-10-18T08:32:46;26;25;
69123;PMS5003;56232;53.384;-2.732;2022-10-18T08:35:11;20;20;
69123;PMS5003;56232;53.384;-2.732;2022-10-18T08:37:37;18;18;
69123;PMS5003;56232;53.384;-2.732;2022-10-18T08:40:02;22;21;
69123;PMS5003;56232;53.384;-2.732;2022-10-18T08:42:33;19;19;
69123;PMS5003;56232;53.384;-2.732;2022-10-18T08:44:53;24;23;
69123;PMS5003;56232;53.384;-2.732;2022-10-18T08:47:18;20;20;
69123;PMS5003;56232;53.384;-2.732;2022-10-18T08:49:44;22;19;
69123;PMS5003;56232;53.384;-2.732;2022-10-18T08:52:11;25;22;
69123;PMS5003;56232;53.384;-2.732;2022-10-18T08:54:36;19;18;
69123;PMS5003;56232;53.384;-2.732;2022-10-18T08:57:00;15;14;
69123;PMS5003;56232;53.384;-2.732;2022-10-18T08:59:24;20;20;
69123;PMS5003;56232;53.384;-2.732;2022-10-18T09:01:52;17;17;
69123;PMS5003;56232;53.384;-2.732;2022-10-18T09:04:19;16;15;
69123;PMS5003;56232;53.384;-2.732;2022-10-18T09:06:42;17;16;
69123;PMS5003;56232;53.384;-2.732;2022-10-18T09:09:11;14;14;
69123;PMS5003;56232;53.384;-2.732;2022-10-18T09:11:36;18;16;
69123;PMS5003;56232;53.384;-2.732;2022-10-18T09:14:01;16;14;
69123;PMS5003;56232;53.384;-2.732;2022-10-18T09:16:25;15;14;
69123;PMS5003;56232;53.384;-2.732;2022-10-18T09:18:51;14;13;
69123;PMS5003;56232;53.384;-2.732;2022-10-18T09:21:17;15;14;
69123;PMS5003;56232;53.384;-2.732;2022-10-18T09:23:41;13;12;
69123;PMS5003;56232;53.384;-2.732;2022-10-18T09:26:06;14;14;
69123;PMS5003;56232;53.384;-2.732;2022-10-18T09:28:39;16;15;
69123;PMS5003;56232;53.384;-2.732;2022-10-18T09:30:58;13;13;
69123;PMS5003;56232;53.384;-2.732;2022-10-18T09:33:25;21;19;
69123;PMS5003;56232;53.384;-2.732;2022-10-18T09:35:48;23;22;
69123;PMS5003;56232;53.384;-2.732;2022-10-18T09:38:13;22;19;
69123;PMS5003;56232;53.384;-2.732;2022-10-18T09:40:42;24;23;
69123;PMS5003;56232;53.384;-2.732;2022-10-18T09:43:05;24;22;
69123;PMS5003;56232;53.384;-2.732;2022-10-18T09:45:30;25;23;
69123;PMS5003;56232;53.384;-2.732;2022-10-18T09:47:58;23;22;
69123;PMS5003;56232;53.384;-2.732;2022-10-18T09:50:21;23;22;
69123;PMS5003;56232;53.384;-2.732;2022-10-18T09:52:47;26;23;
69123;PMS5003;56232;53.384;-2.732;2022-10-18T09:55:12;23;23;
69123;PMS5003;56232;53.384;-2.732;2022-10-18T09:57:38;20;19;
69123;PMS5003;56232;53.384;-2.732;2022-10-18T10:00:03;23;23;
69123;PMS5003;56232;53.384;-2.732;2022-10-18T10:02:28;30;28;
69123;PMS5003;56232;53.384;-2.732;2022-10-18T10:04:53;22;22;
69123;PMS5003;56232;53.384;-2.732;2022-10-18T10:07:19;30;27;
69123;PMS5003;56232;53.384;-2.732;2022-10-18T10:09:44;30;29;
69123;PMS5003;56232;53.384;-2.732;2022-10-18T10:14:41;33;27;
69123;PMS5003;56232;53.384;-2.732;2022-10-18T10:17:00;31;25;
69123;PMS5003;56232;53.384;-2.732;2022-10-18T10:19:26;33;28;
69123;PMS5003;56232;53.384;-2.732;2022-10-18T10:21:52;32;27;
69123;PMS5003;56232;53.384;-2.732;2022-10-18T10:24:20;37;32;
69123;PMS5003;56232;53.384;-2.732;2022-10-18T10:26:42;35;33;
69123;PMS5003;56232;53.384;-2.732;2022-10-18T10:31:32;33;30;
69123;PMS5003;56232;53.384;-2.732;2022-10-18T10:33:58;30;27;
69123;PMS5003;56232;53.384;-2.732;2022-10-18T10:36:23;31;29;
69123;PMS5003;56232;53.384;-2.732;2022-10-18T10:41:17;35;29;
69123;PMS5003;56232;53.384;-2.732;2022-10-18T10:43:39;27;25;
69123;PMS5003;56232;53.384;-2.732;2022-10-18T10:46:05;29;26;
69123;PMS5003;56232;53.384;-2.732;2022-10-18T10:48:31;30;29;
69123;PMS5003;56232;53.384;-2.732;2022-10-18T10:50:58;28;26;
69123;PMS5003;56232;53.384;-2.732;2022-10-18T10:55:47;22;21;
69123;PMS5003;56232;53.384;-2.732;2022-10-18T10:58:13;24;21;
69123;PMS5003;56232;53.384;-2.732;2022-10-18T11:00:38;28;26;
69123;PMS5003;56232;53.384;-2.732;2022-10-18T11:03:04;28;27;
69123;PMS5003;56232;53.384;-2.732;2022-10-18T11:05:28;27;26;
69123;PMS5003;56232;53.384;-2.732;2022-10-18T11:07:53;25;20;
69123;PMS5003;56232;53.384;-2.732;2022-10-18T11:10:18;27;25;
69123;PMS5003;56232;53.384;-2.732;2022-10-18T11:12:44;29;26;
69123;PMS5003;56232;53.384;-2.732;2022-10-18T11:15:13;24;24;
69123;PMS5003;56232;53.384;-2.732;2022-10-18T11:17:36;27;24;
69123;PMS5003;56232;53.384;-2.732;2022-10-18T11:20:04;24;21;
69123;PMS5003;56232;53.384;-2.732;2022-10-18T11:22:25;24;22;
69123;PMS5003;56232;53.384;-2.732;2022-10-18T11:24:50;29;29;
69123;PMS5003;56232;53.384;-2.732;2022-10-18T11:27:17;36;30;
69123;PMS5003;56232;53.384;-2.732;2022-10-18T11:29:43;34;27;
69123;PMS5003;56232;53.384;-2.732;2022-10-18T11:32:07;24;22;
69123;PMS5003;56232;53.384;-2.732;2022-10-18T11:34:37;30;28;
69123;PMS5003;56232;53.384;-2.732;2022-10-18T11:36:58;29;23;
69123;PMS5003;56232;53.384;-2.732;2022-10-18T11:39:23;32;29;
69123;PMS5003;56232;53.384;-2.732;2022-10-18T11:41:48;24;20;
69123;PMS5003;56232;53.384;-2.732;2022-10-18T11:44:15;22;19;
69123;PMS5003;56232;53.384;-2.732;2022-10-18T11:46:41;23;22;
69123;PMS5003;56232;53.384;-2.732;2022-10-18T11:49:07;22;21;
69123;PMS5003;56232;53.384;-2.732;2022-10-18T11:51:30;24;22;
69123;PMS5003;56232;53.384;-2.732;2022-10-18T11:53:58;19;17;
69123;PMS5003;56232;53.384;-2.732;2022-10-18T11:56:21;22;20;
69123;PMS5003;56232;53.384;-2.732;2022-10-18T11:58:48;18;16;
69123;PMS5003;56232;53.384;-2.732;2022-10-18T12:01:12;17;16;
69123;PMS5003;56232;53.384;-2.732;2022-10-18T12:03:48;16;14;
69123;PMS5003;56232;53.384;-2.732;2022-10-18T12:06:02;18;16;
69123;PMS5003;56232;53.384;-2.732;2022-10-18T12:08:27;19;16;
69123;PMS5003;56232;53.384;-2.732;2022-10-18T12:10:52;20;16;
69123;PMS5003;56232;53.384;-2.732;2022-10-18T12:13:17;13;11;
69123;PMS5003;56232;53.384;-2.732;2022-10-18T12:15:43;15;13;
69123;PMS5003;56232;53.384;-2.732;2022-10-18T12:18:09;10;9;
69123;PMS5003;56232;53.384;-2.732;2022-10-18T12:20:35;8;7;
69123;PMS5003;56232;53.384;-2.732;2022-10-18T12:23:00;9;8;
69123;PMS5003;56232;53.384;-2.732;2022-10-18T12:25:25;7;6;
69123;PMS5003;56232;53.384;-2.732;2022-10-18T12:27:51;9;7;
69123;PMS5003;56232;53.384;-2.732;2022-10-18T12:30:18;5;4;
69123;PMS5003;56232;53.384;-2.732;2022-10-18T12:32:41;4;4;
69123;PMS5003;56232;53.384;-2.732;2022-10-18T12:35:09;7;7;
69123;PMS5003;56232;53.384;-2.732;2022-10-18T12:37:36;6;5;
69123;PMS5003;56232;53.384;-2.732;2022-10-18T12:39:58;4;4;
69123;PMS5003;56232;53.384;-2.732;2022-10-18T12:42:24;6;4;
69123;PMS5003;56232;53.384;-2.732;2022-10-18T12:44:53;1;1;
69123;PMS5003;56232;53.384;-2.732;2022-10-18T12:47:19;4;3;
69123;PMS5003;56232;53.384;-2.732;2022-10-18T12:49:40;2;2;
69123;PMS5003;56232;53.384;-2.732;2022-10-18T12:52:06;3;3;
69123;PMS5003;56232;53.384;-2.732;2022-10-18T12:54:32;4;3;
69123;PMS5003;56232;53.384;-2.732;2022-10-18T12:56:57;4;3;
69123;PMS5003;56232;53.384;-2.732;2022-10-18T13:11:31;4;3;
69123;PMS5003;56232;53.384;-2.732;2022-10-18T13:14:02;3;3;
69123;PMS5003;56232;53.384;-2.732;2022-10-18T13:16:24;2;1;
69123;PMS5003;56232;53.384;-2.732;2022-10-18T13:18:50;3;2;
69123;PMS5003;56232;53.384;-2.732;2022-10-18T13:21:15;3;2;
69123;PMS5003;56232;53.384;-2.732;2022-10-18T13:23:39;3;2;
69123;PMS5003;56232;53.384;-2.732;2022-10-18T13:26:08;2;2;
69123;PMS5003;56232;53.384;-2.732;2022-10-18T13:28:29;6;3;
69123;PMS5003;56232;53.384;-2.732;2022-10-18T13:30:55;3;2;
69123;PMS5003;56232;53.384;-2.732;2022-10-18T13:35:48;0;0;
69123;PMS5003;56232;53.384;-2.732;2022-10-18T13:40:36;2;2;
69123;PMS5003;56232;53.384;-2.732;2022-10-18T13:47:52;2;2;
69123;PMS5003;56232;53.384;-2.732;2022-10-18T13:50:23;4;4;
69123;PMS5003;56232;53.384;-2.732;2022-10-18T13:57:40;3;2;
69123;PMS5003;56232;53.384;-2.732;2022-10-18T14:02:33;1;1;
69123;PMS5003;56232;53.384;-2.732;2022-10-18T14:04:56;2;1;
69123;PMS5003;56232;53.384;-2.732;2022-10-18T14:07:17;1;0;
69123;PMS5003;56232;53.384;-2.732;2022-10-18T14:09:43;1;1;
69123;PMS5003;56232;53.384;-2.732;2022-10-18T14:12:10;2;1;
69123;PMS5003;56232;53.384;-2.732;2022-10-18T14:14:35;2;2;
69123;PMS5003;56232;53.384;-2.732;2022-10-18T14:17:01;1;0;
69123;PMS5003;56232;53.384;-2.732;2022-10-18T14:19:27;1;0;
69123;PMS5003;56232;53.384;-2.732;2022-10-18T14:21:52;2;2;
69123;PMS5003;56232;53.384;-2.732;2022-10-18T14:24:18;1;1;
69123;PMS5003;56232;53.384;-2.732;2022-10-18T14:26:41;2;1;
69123;PMS5003;56232;53.384;-2.732;2022-10-18T14:31:33;2;1;
69123;PMS5003;56232;53.384;-2.732;2022-10-18T14:33:58;2;2;
69123;PMS5003;56232;53.384;-2.732;2022-10-18T14:36:24;2;1;
69123;PMS5003;56232;53.384;-2.732;2022-10-18T14:38:49;3;3;
69123;PMS5003;56232;53.384;-2.732;2022-10-18T14:41:16;2;1;
69123;PMS5003;56232;53.384;-2.732;2022-10-18T14:43:40;2;2;
69123;PMS5003;56232;53.384;-2.732;2022-10-18T14:46:07;1;1;
69123;PMS5003;56232;53.384;-2.732;2022-10-18T14:48:31;1;1;
69123;PMS5003;56232;53.384;-2.732;2022-10-18T14:50:57;1;1;
69123;PMS5003;56232;53.384;-2.732;2022-10-18T14:53:22;1;0;
69123;PMS5003;56232;53.384;-2.732;2022-10-18T14:55:52;1;1;
69123;PMS5003;56232;53.384;-2.732;2022-10-18T14:58:14;2;2;
69123;PMS5003;56232;53.384;-2.732;2022-10-18T15:00:39;3;2;
69123;PMS5003;56232;53.384;-2.732;2022-10-18T15:03:05;1;1;
69123;PMS5003;56232;53.384;-2.732;2022-10-18T15:05:30;2;1;
69123;PMS5003;56232;53.384;-2.732;2022-10-18T15:07:56;4;4;
69123;PMS5003;56232;53.384;-2.732;2022-10-18T15:10:22;3;2;
69123;PMS5003;56232;53.384;-2.732;2022-10-18T15:12:47;1;1;
69123;PMS5003;56232;53.384;-2.732;2022-10-18T15:15:14;2;2;
69123;PMS5003;56232;53.384;-2.732;2022-10-18T15:17:38;2;1;
69123;PMS5003;56232;53.384;-2.732;2022-10-18T15:20:16;4;3;
69123;PMS5003;56232;53.384;-2.732;2022-10-18T15:22:29;1;1;
69123;PMS5003;56232;53.384;-2.732;2022-10-18T15:27:21;2;1;
69123;PMS5003;56232;53.384;-2.732;2022-10-18T15:29:46;2;2;
69123;PMS5003;56232;53.384;-2.732;2022-10-18T15:32:14;1;1;
69123;PMS5003;56232;53.384;-2.732;2022-10-18T15:34:37;2;1;
69123;PMS5003;56232;53.384;-2.732;2022-10-18T15:39:28;4;3;
69123;PMS5003;56232;53.384;-2.732;2022-10-18T15:41:54;2;2;
69123;PMS5003;56232;53.384;-2.732;2022-10-18T15:44:21;4;2;
69123;PMS5003;56232;53.384;-2.732;2022-10-18T15:46:45;4;4;
69123;PMS5003;56232;53.384;-2.732;2022-10-18T15:51:41;2;2;
69123;PMS5003;56232;53.384;-2.732;2022-10-18T15:54:01;3;2;
69123;PMS5003;56232;53.384;-2.732;2022-10-18T15:56:27;2;2;
69123;PMS5003;56232;53.384;-2.732;2022-10-18T15:58:53;3;3;
69123;PMS5003;56232;53.384;-2.732;2022-10-18T16:01:19;5;4;
69123;PMS5003;56232;53.384;-2.732;2022-10-18T16:03:44;2;2;
69123;PMS5003;56232;53.384;-2.732;2022-10-18T16:06:09;2;2;
69123;PMS5003;56232;53.384;-2.732;2022-10-18T16:08:36;2;2;
69123;PMS5003;56232;53.384;-2.732;2022-10-18T16:11:00;2;2;
69123;PMS5003;56232;53.384;-2.732;2022-10-18T16:13:26;3;3;
69123;PMS5003;56232;53.384;-2.732;2022-10-18T16:15:51;2;2;
69123;PMS5003;56232;53.384;-2.732;2022-10-18T16:18:18;3;3;
69123;PMS5003;56232;53.384;-2.732;2022-10-18T16:20:43;4;3;
69123;PMS5003;56232;53.384;-2.732;2022-10-18T16:23:12;1;1;
69123;PMS5003;56232;53.384;-2.732;2022-10-18T16:25:34;4;3;
69123;PMS5003;56232;53.384;-2.732;2022-10-18T16:27:59;4;3;
69123;PMS5003;56232;53.384;-2.732;2022-10-18T16:30:25;3;3;
69123;PMS5003;56232;53.384;-2.732;2022-10-18T16:32:51;4;4;
69123;PMS5003;56232;53.384;-2.732;2022-10-18T16:35:16;4;2;
69123;PMS5003;56232;53.384;-2.732;2022-10-18T16:37:42;3;3;
69123;PMS5003;56232;53.384;-2.732;2022-10-18T16:40:12;4;3;
69123;PMS5003;56232;53.384;-2.732;2022-10-18T16:42:33;4;3;
69123;PMS5003;56232;53.384;-2.732;2022-10-18T16:44:58;6;5;
69123;PMS5003;56232;53.384;-2.732;2022-10-18T16:47:24;6;5;
69123;PMS5003;56232;53.384;-2.732;2022-10-18T16:49:49;5;4;
69123;PMS5003;56232;53.384;-2.732;2022-10-18T16:52:15;6;5;
69123;PMS5003;56232;53.384;-2.732;2022-10-18T16:54:41;4;4;
69123;PMS5003;56232;53.384;-2.732;2022-10-18T16:57:07;6;5;
69123;PMS5003;56232;53.384;-2.732;2022-10-18T16:59:32;2;2;
69123;PMS5003;56232;53.384;-2.732;2022-10-18T17:01:57;5;4;
69123;PMS5003;56232;53.384;-2.732;2022-10-18T17:04:23;2;2;